Meteo Giornale » Osservazioni meteo Spagna » Salamanca-Matacan
ore: 21:00 - Osservazioni Meteo Salamanca-Matacan
Lat. 40° 57' N Lon. 5° 30' W Alt. 793 metri s.l.m.
23 °C
Sereno
Temp. 24 Ore
9 °C
30 °C
Nord
3.7 Km/h
Dew point 13 °C
Umidità 53 %
Visibilità 10 Km
Il sole sorge alle ore 07:48
Il sole tramonta alle ore 20:55
| Data e Ora | Cielo e Fenomeni | T °C | DP °C | Um. % | Pres. hPa | Vis. km | Vento km/h | |
|---|---|---|---|---|---|---|---|---|
| Oggi h: 21:00 | Sereno | 23 | 13 | 53 | 1020 | 10 | N 3.7 | |
| Oggi h: 20:30 | Sereno | 26 | 13 | 44 | 1020 | 10 | N 1.8 | |
| Oggi h: 20:00 | Sereno | 29 | 7 | 25 | 1020 | 10 | N 3.7 | |
| Oggi h: 19:30 | Sereno | 29 | 8 | 26 | 1020 | 10 | N 3.7 | |
| Oggi h: 19:00 | Sereno | 30 | 7 | 23 | 1020 | 10 | N 3.7 | |
| Oggi h: 18:30 | Sereno | 30 | 8 | 25 | 1020 | 10 | N 7.4 | |
| Oggi h: 18:00 | Sereno | 30 | 7 | 23 | 1020 | 10 | N 7.4 | |
| Oggi h: 17:30 | Sereno | 30 | 6 | 22 | 1020 | 10 | N 3.7 | |
| Oggi h: 17:00 | Sereno | 29 | 7 | 25 | 1020 | 10 | N 5.5 | |
| Oggi h: 16:30 | Sereno | 29 | 7 | 25 | 1020 | 10 | N 3.7 | |
| Oggi h: 16:00 | Sereno | 28 | 7 | 26 | 1020 | 10 | N 5.5 | |
| Oggi h: 15:30 | Sereno | 28 | 8 | 28 | 1021 | 10 | NO 7.4 | |
| Oggi h: 15:00 | Sereno | 27 | 8 | 30 | 1021 | 10 | N 7.4 | |
| Oggi h: 14:30 | Sereno | 27 | 9 | 32 | 1021 | 10 | N 7.4 | |
| Oggi h: 14:00 | Sereno | 25 | 10 | 38 | 1021 | 10 | N 9.3 | |
| Oggi h: 13:30 | Sereno | 25 | 11 | 41 | 1021 | 10 | N 5.5 | |
| Oggi h: 13:00 | Sereno | 24 | 11 | 43 | 1021 | 10 | N 5.5 | |
| Oggi h: 12:30 | Sereno | 22 | 12 | 53 | 1022 | 10 | N 5.5 | |
| Oggi h: 12:00 | Sereno | 21 | 12 | 56 | 1022 | 10 | N 3.7 | |
| Oggi h: 11:30 | Sereno | 20 | 13 | 64 | 1021 | 10 | N 3.7 | |
| Oggi h: 11:00 | Sereno | 18 | 12 | 67 | 1022 | 10 | N 5.5 | |
| Oggi h: 10:30 | Sereno | 17 | 12 | 72 | 1021 | 10 | N 5.5 | |
| Oggi h: 10:00 | Sereno | 16 | 11 | 72 | 1021 | 10 | N 1.8 | |
| Oggi h: 09:30 | Sereno | 14 | 11 | 82 | 1021 | 10 | N 3.7 | |
| Oggi h: 09:00 | Sereno | 13 | 10 | 81 | 1021 | 10 | N 0 | |
| Oggi h: 08:30 | Sereno | 11 | 9 | 87 | 1021 | 10 | N 3.7 | |
| Oggi h: 08:00 | Sereno | 9 | 8 | 93 | 1021 | 10 | N 1.8 | |
| Oggi h: 07:30 | Sereno | 9 | 8 | 93 | 1021 | 10 | N 0 | |
| Oggi h: 07:00 | Sereno | 9 | 8 | 93 | 1021 | 10 | N 5.5 | |
| Oggi h: 06:30 | Sereno | 10 | 9 | 93 | 1020 | 8 | N 3.7 | |
| Oggi h: 06:00 | Sereno | 10 | 9 | 93 | 1020 | 8 | N 0 | |
| Oggi h: 05:30 | Sereno | 10 | 8 | 87 | 1020 | 8 | N 3.7 | |
| Oggi h: 05:00 | Sereno | 11 | 8 | 81 | 1020 | 8 | N 0 | |
| Oggi h: 04:30 | Sereno | 11 | 9 | 87 | 1020 | 9 | O 7.4 | |
| Oggi h: 04:00 | Sereno | 12 | 9 | 81 | 1020 | 9 | N 0 | |
| Oggi h: 03:30 | Sereno | 14 | 10 | 76 | 1020 | 9 | N 3.7 | |
| Oggi h: 03:00 | Sereno | 13 | 9 | 76 | 1021 | 9 | S/SE 7.4 | |
| Oggi h: 02:30 | Sereno | 15 | 10 | 72 | 1021 | 9 | N 3.7 | |
| Oggi h: 02:00 | Sereno | 14 | 9 | 71 | 1021 | 9 | N 0 | |
| Oggi h: 01:30 | Sereno | 14 | 9 | 71 | 1021 | 9 | N 1.8 | |
| Oggi h: 01:00 | Sereno | 16 | 8 | 58 | 1021 | 9 | N 1.8 | |
| Oggi h: 00:30 | Sereno | 16 | 9 | 63 | 1021 | 10 | N 0 | |
| Oggi h: 00:00 | Sereno | 16 | 9 | 63 | 1021 | 10 | N 3.7 | |
| Ieri h: 23:30 | Sereno | 16 | 8 | 58 | 1021 | 10 | N 0 | |
| Ieri h: 23:00 | Sereno | 19 | 8 | 48 | 1021 | 10 | N 3.7 | |
| Ieri h: 22:30 | Sereno | 19 | 8 | 48 | 1021 | 10 | N 1.8 | |
| Ieri h: 22:00 | Sereno | 19 | 10 | 55 | 1021 | 10 | N 5.5 | |



